createdAt,value
2023-02-12T00:03:51.739Z,102088.41
2023-02-12T00:08:56.010Z,102086.56
2023-02-12T00:14:00.358Z,102089.25
2023-02-12T00:19:03.120Z,102093.63
2023-02-12T00:24:06.132Z,102083.97
2023-02-12T00:29:11.041Z,102081.41
2023-02-12T00:34:13.801Z,102088.50
2023-02-12T00:39:17.002Z,102084.22
2023-02-12T00:44:21.212Z,102098.94
2023-02-12T00:49:24.068Z,102095.41
2023-02-12T00:54:26.937Z,102101.34
2023-02-12T00:59:31.698Z,102100.28
2023-02-12T01:04:34.487Z,102112.31
2023-02-12T01:09:37.314Z,102113.28
2023-02-12T01:14:41.457Z,102114.94
2023-02-12T01:19:44.219Z,102116.63
2023-02-12T01:24:46.968Z,102107.81
2023-02-12T01:29:51.289Z,102109.50
2023-02-12T01:34:54.956Z,102115.69
2023-02-12T01:39:58.058Z,102121.78
2023-02-12T01:45:54.479Z,102123.31
2023-02-12T01:50:59.101Z,102113.03
2023-02-12T01:56:03.334Z,102124.25
2023-02-12T02:01:09.364Z,102114.72
2023-02-12T02:06:16.746Z,102117.34
2023-02-12T02:11:36.899Z,102115.41
2023-02-12T02:16:44.512Z,102110.00
2023-02-12T02:22:06.536Z,102104.47
2023-02-12T02:27:22.605Z,102094.19
2023-02-12T02:32:28.546Z,102097.00
2023-02-12T02:37:34.230Z,102096.31
2023-02-12T02:42:40.929Z,102109.66
2023-02-12T02:47:48.035Z,102101.22
2023-02-12T02:52:53.706Z,102102.28
2023-02-12T02:57:58.990Z,102109.91
2023-02-12T03:03:08.399Z,102121.94
2023-02-12T03:08:13.951Z,102115.88
2023-02-12T03:13:21.627Z,102117.47
2023-02-12T03:18:29.076Z,102127.00
2023-02-12T03:23:34.321Z,102129.66
2023-02-12T03:28:38.832Z,102139.13
2023-02-12T03:33:52.707Z,102149.41
2023-02-12T03:38:57.477Z,102153.53
2023-02-12T03:44:05.922Z,102145.94
2023-02-12T03:49:14.571Z,102155.44
2023-02-12T03:54:19.204Z,102162.44
2023-02-12T03:59:22.708Z,102168.34
2023-02-12T04:04:27.414Z,102159.59
2023-02-12T04:09:30.508Z,102174.28
2023-02-12T04:14:41.295Z,102185.06
2023-02-12T04:19:55.957Z,102189.50
2023-02-12T04:25:01.748Z,102183.31
2023-02-12T04:30:07.398Z,102191.97
2023-02-12T04:35:17.505Z,102183.22
2023-02-12T04:40:21.955Z,102197.19
2023-02-12T04:45:26.983Z,102197.41
2023-02-12T04:50:40.011Z,102193.94
2023-02-12T04:55:43.475Z,102198.19
2023-02-12T05:00:46.264Z,102208.47
2023-02-12T05:05:50.361Z,102207.69
2023-02-12T05:10:53.151Z,102206.69
2023-02-12T05:15:56.429Z,102211.81
2023-02-12T05:21:01.931Z,102206.56
2023-02-12T05:26:07.014Z,102202.19
2023-02-12T05:31:11.757Z,102204.81
2023-02-12T05:36:17.313Z,102207.75
2023-02-12T05:41:22.456Z,102212.44
2023-02-12T05:46:25.254Z,102212.44
2023-02-12T05:51:29.455Z,102216.88
2023-02-12T05:56:33.573Z,102215.91
2023-02-12T06:01:38.705Z,102216.63
2023-02-12T06:06:43.248Z,102228.75
2023-02-12T06:11:46.423Z,102230.41
2023-02-12T06:16:50.713Z,102240.59
2023-02-12T06:21:54.839Z,102236.22
2023-02-12T06:26:57.549Z,102238.81
2023-02-12T06:32:00.472Z,102243.88
2023-02-12T06:37:04.607Z,102250.84
2023-02-12T06:42:07.421Z,102262.13
2023-02-12T06:47:10.144Z,102265.50
2023-02-12T06:52:14.338Z,102271.41
2023-02-12T06:57:17.145Z,102272.78
2023-02-12T07:02:19.901Z,102275.81
2023-02-12T07:07:24.118Z,102278.34
2023-02-12T07:12:26.866Z,102289.84
2023-02-12T07:17:31.092Z,102304.09
2023-02-12T07:22:38.105Z,102300.56
2023-02-12T07:27:40.921Z,102309.97
2023-02-12T07:32:43.698Z,102314.44
2023-02-12T07:37:47.774Z,102309.38
2023-02-12T07:42:55.157Z,102314.69
2023-02-12T07:47:57.863Z,102323.53
2023-02-12T07:53:02.113Z,102321.84
2023-02-12T07:58:05.198Z,102332.63
2023-02-12T08:03:08.147Z,102338.44
2023-02-12T08:08:12.295Z,102328.44
2023-02-12T08:13:15.063Z,102333.22
2023-02-12T08:18:18.116Z,102351.31
2023-02-12T08:23:22.230Z,102346.56
2023-02-12T08:28:24.992Z,102338.25
2023-02-12T08:33:27.947Z,102346.88
2023-02-12T08:38:32.548Z,102349.63
2023-02-12T08:43:35.618Z,102361.78
2023-02-12T08:48:38.668Z,102359.00
2023-02-12T08:53:44.230Z,102355.22
2023-02-12T08:58:47.449Z,102364.22
2023-02-12T09:03:50.872Z,102360.78
2023-02-12T09:08:55.907Z,102370.47
2023-02-12T09:14:00.013Z,102371.38
2023-02-12T09:19:02.751Z,102378.50
2023-02-12T09:24:07.244Z,102386.81
2023-02-12T09:29:10.054Z,102383.81
2023-02-12T09:34:13.114Z,102392.41
2023-02-12T09:39:17.335Z,102396.91
2023-02-12T09:44:23.266Z,102401.50
2023-02-12T09:49:49.489Z,102402.84
2023-02-12T09:54:54.834Z,102405.16
2023-02-12T09:59:59.702Z,102416.97
2023-02-12T10:05:02.832Z,102411.25
2023-02-12T10:10:17.686Z,102408.03
2023-02-12T10:15:31.628Z,102409.31
2023-02-12T10:20:59.710Z,102412.50
2023-02-12T10:26:07.288Z,102413.00
2023-02-12T10:31:16.598Z,102420.69
2023-02-12T10:36:29.023Z,102424.41
2023-02-12T10:41:34.353Z,102421.88
2023-02-12T10:46:37.244Z,102418.44
2023-02-12T10:51:54.824Z,102419.59
2023-02-12T10:56:59.086Z,102418.50
2023-02-12T11:02:01.903Z,102409.06
2023-02-12T11:07:06.742Z,102408.28
2023-02-12T11:12:20.714Z,102406.94
2023-02-12T11:17:26.937Z,102401.41
2023-02-12T11:22:30.490Z,102393.19
2023-02-12T11:27:34.611Z,102390.66
2023-02-12T11:32:38.040Z,102406.78
2023-02-12T11:37:42.831Z,102404.53
2023-02-12T11:42:49.286Z,102401.13
2023-02-12T11:47:52.560Z,102400.97
2023-02-12T11:52:59.083Z,102393.19
2023-02-12T11:58:15.352Z,102394.97
2023-02-12T12:03:22.903Z,102388.06
2023-02-12T12:08:29.234Z,102386.19
2023-02-12T12:13:37.188Z,102387.97
2023-02-12T12:19:04.597Z,102385.00
2023-02-12T12:24:11.115Z,102391.38
2023-02-12T12:29:20.830Z,102380.38
2023-02-12T12:34:25.319Z,102376.50
2023-02-12T12:39:30.194Z,102371.34
2023-02-12T12:44:47.173Z,102369.38
2023-02-12T12:49:57.790Z,102372.28
2023-02-12T12:55:08.975Z,102367.09
2023-02-12T13:00:25.037Z,102380.78
2023-02-12T13:06:24.686Z,102367.44
2023-02-12T13:11:38.899Z,102355.28
2023-02-12T13:16:47.517Z,102365.81
2023-02-12T13:21:56.957Z,102362.53
2023-02-12T13:27:01.628Z,102363.72
2023-02-12T13:32:07.481Z,102359.16
2023-02-12T13:37:14.663Z,102363.22
2023-02-12T13:42:27.164Z,102355.63
2023-02-12T13:47:38.312Z,102369.72
2023-02-12T13:52:45.378Z,102355.69
2023-02-12T13:57:48.077Z,102359.34
2023-02-12T14:02:52.755Z,102356.72
2023-02-12T14:07:57.139Z,102363.84
2023-02-12T14:13:11.689Z,102350.81
2023-02-12T14:18:27.998Z,102361.53
2023-02-12T14:23:32.522Z,102359.44
2023-02-12T14:28:51.469Z,102354.94
2023-02-12T14:34:38.639Z,102355.69
2023-02-12T14:39:41.456Z,102366.44
2023-02-12T14:44:49.796Z,102358.34
2023-02-12T14:49:55.804Z,102364.50
2023-02-12T14:55:00.501Z,102359.75
2023-02-12T15:00:13.895Z,102357.41
2023-02-12T15:05:22.045Z,102355.88
2023-02-12T15:10:29.019Z,102364.25
2023-02-12T15:15:34.802Z,102369.56
2023-02-12T15:20:46.315Z,102368.72
2023-02-12T15:25:51.648Z,102376.22
2023-02-12T15:30:55.513Z,102365.94
2023-02-12T15:36:00.043Z,102368.66
2023-02-12T15:41:04.109Z,102367.63
2023-02-12T15:46:08.903Z,102371.00
2023-02-12T15:51:19.403Z,102378.84
2023-02-12T15:56:24.345Z,102366.84
2023-02-12T16:01:29.177Z,102376.50
2023-02-12T16:06:35.384Z,102382.88
2023-02-12T16:11:38.568Z,102384.84
2023-02-12T16:16:45.475Z,102390.16
2023-02-12T16:21:51.620Z,102391.16
2023-02-12T16:26:54.491Z,102394.47
2023-02-12T16:31:59.056Z,102390.56
2023-02-12T16:37:03.966Z,102404.16
2023-02-12T16:42:16.185Z,102406.78
2023-02-12T16:47:21.862Z,102411.84
2023-02-12T16:52:36.466Z,102402.97
2023-02-12T16:57:39.213Z,102412.63
2023-02-12T17:02:42.045Z,102410.25
2023-02-12T17:07:46.407Z,102416.44
2023-02-12T17:12:51.327Z,102409.66
2023-02-12T17:17:54.103Z,102416.34
2023-02-12T17:22:59.406Z,102414.47
2023-02-12T17:28:02.374Z,102420.63
2023-02-12T17:33:05.509Z,102431.03
2023-02-12T17:38:10.015Z,102423.25
2023-02-12T17:43:12.900Z,102426.22
2023-02-12T17:48:17.114Z,102433.31
2023-02-12T17:53:21.232Z,102441.47
2023-02-12T17:58:24.055Z,102435.16
2023-02-12T18:03:26.857Z,102426.44
2023-02-12T18:08:31.838Z,102433.53
2023-02-12T18:13:34.878Z,102439.03
2023-02-12T18:18:40.066Z,102432.50
2023-02-12T18:23:45.558Z,102436.16
2023-02-12T18:28:48.298Z,102426.69
2023-02-12T18:33:50.980Z,102424.19
2023-02-12T18:38:55.047Z,102426.75
2023-02-12T18:43:59.222Z,102417.09
2023-02-12T18:49:02.765Z,102419.41
2023-02-12T18:54:09.450Z,102409.88
2023-02-12T18:59:14.131Z,102413.16
2023-02-12T19:04:18.049Z,102407.25
2023-02-12T19:09:24.414Z,102401.09
2023-02-12T19:14:28.088Z,102409.53
2023-02-12T19:19:31.030Z,102416.28
2023-02-12T19:24:46.196Z,102414.09
2023-02-12T19:29:49.807Z,102410.53
2023-02-12T19:34:52.784Z,102423.88
2023-02-12T19:39:56.855Z,102429.25
2023-02-12T19:44:59.859Z,102423.34
2023-02-12T19:50:02.761Z,102422.28
2023-02-12T19:55:07.634Z,102420.75
2023-02-12T20:00:11.703Z,102422.13
2023-02-12T20:05:14.443Z,102409.66
2023-02-12T20:10:19.179Z,102419.88
2023-02-12T20:15:25.366Z,102418.28
2023-02-12T20:20:28.097Z,102420.75
2023-02-12T20:25:32.345Z,102419.88
2023-02-12T20:30:35.177Z,102419.66
2023-02-12T20:35:38.703Z,102420.41
2023-02-12T20:40:42.828Z,102411.31
2023-02-12T20:45:45.561Z,102419.69
2023-02-12T20:50:48.296Z,102421.63
2023-02-12T20:55:52.459Z,102421.63
2023-02-12T21:00:55.435Z,102424.22
2023-02-12T21:05:58.732Z,102430.00
2023-02-12T21:11:04.740Z,102423.66
2023-02-12T21:16:09.735Z,102427.22
2023-02-12T21:21:13.960Z,102425.84
2023-02-12T21:26:19.873Z,102420.09
2023-02-12T21:31:24.830Z,102425.88
2023-02-12T21:36:29.201Z,102423.34
2023-02-12T21:41:35.583Z,102420.75
2023-02-12T21:46:38.701Z,102433.66
2023-02-12T21:51:43.424Z,102417.72
2023-02-12T21:56:49.010Z,102420.25
2023-02-12T22:01:53.670Z,102414.69
2023-02-12T22:06:57.996Z,102424.91
2023-02-12T22:12:02.222Z,102432.00
2023-02-12T22:17:04.982Z,102428.03
2023-02-12T22:22:07.822Z,102420.00
2023-02-12T22:27:11.958Z,102432.16
2023-02-12T22:32:14.862Z,102426.34
2023-02-12T22:37:17.955Z,102431.56
2023-02-12T22:42:22.138Z,102435.00
2023-02-12T22:47:24.925Z,102428.03
2023-02-12T22:52:27.904Z,102432.50
2023-02-12T22:57:32.105Z,102439.31
2023-02-12T23:02:34.807Z,102433.31
2023-02-12T23:07:37.570Z,102443.03
2023-02-12T23:12:41.781Z,102439.47
2023-02-12T23:17:44.685Z,102439.56
2023-02-12T23:22:47.472Z,102436.97
2023-02-12T23:27:51.676Z,102435.56
2023-02-12T23:32:54.422Z,102437.50
2023-02-12T23:37:57.212Z,102434.91
2023-02-12T23:43:01.758Z,102430.22
2023-02-12T23:48:04.768Z,102426.63
2023-02-12T23:53:09.924Z,102427.94
2023-02-12T23:58:14.097Z,102431.28
